Time;durP1;ratioP1;P1;durP2;ratioP2;P2;SDS_P1;SDS_P2;PMS_P1;PMS_P2;Temp;Humidity;BMP_temperature;BMP_pressure;BME280_temperature;BME280_humidity;BME280_pressure;Samples;Min_cycle;Max_cycle;Signal;HPM_P1;HPM_P2
2022/03/26 00:00:48;;;;;;;28.25;18.05;;;;;;;9.83;58.08;101890.09;4990092;28;101942;-48
2022/03/26 00:03:16;;;;;;;28.15;18.58;;;;;;;9.81;58.02;101890.34;4979810;28;102730;-50
2022/03/26 00:05:45;;;;;;;29.33;18.27;;;;;;;9.82;57.75;101894.72;4970196;28;104080;-49
2022/03/26 00:08:12;;;;;;;30.48;17.92;;;;;;;9.82;58.08;101888.44;4978702;28;101935;-49
2022/03/26 00:10:40;;;;;;;31.80;17.98;;;;;;;9.81;58.01;101887.63;4977449;28;102550;-49
2022/03/26 00:13:09;;;;;;;28.02;18.23;;;;;;;9.81;58.16;101887.63;4991306;28;102713;-50
2022/03/26 00:15:38;;;;;;;29.90;18.80;;;;;;;9.82;58.36;101888.44;4989748;28;103943;-49
2022/03/26 00:18:06;;;;;;;30.23;19.35;;;;;;;9.81;57.92;101882.19;4989311;28;102102;-48
2022/03/26 00:20:33;;;;;;;32.80;19.55;;;;;;;9.81;58.23;101890.34;4989812;28;102370;-50
2022/03/26 00:23:02;;;;;;;30.92;18.73;;;;;;;9.80;57.87;101885.94;4990959;28;102231;-49
2022/03/26 00:25:31;;;;;;;29.95;18.65;;;;;;;9.80;58.35;101880.50;4989819;28;104027;-48
2022/03/26 00:27:57;;;;;;;35.00;20.02;;;;;;;9.80;57.88;101885.94;4987996;28;102097;-49
2022/03/26 00:30:24;;;;;;;36.25;20.92;;;;;;;9.80;58.12;101885.94;4989692;28;104146;-49
2022/03/26 00:32:52;;;;;;;34.17;20.70;;;;;;;9.80;58.02;101885.13;4990946;28;102087;-49
2022/03/26 00:35:19;;;;;;;34.00;20.70;;;;;;;9.80;57.67;101885.94;4989619;28;103833;-49
2022/03/26 00:37:45;;;;;;;34.53;19.67;;;;;;;9.79;58.46;101881.59;4986286;28;102434;-49
2022/03/26 00:40:13;;;;;;;40.25;21.38;;;;;;;9.81;58.45;101892.25;4990127;28;101952;-49
2022/03/26 00:42:40;;;;;;;36.58;21.42;;;;;;;9.81;58.48;101886.81;4991374;28;102060;-49
2022/03/26 00:45:08;;;;;;;32.03;19.25;;;;;;;9.80;58.07;101888.66;4982833;28;103891;-49
2022/03/26 00:47:35;;;;;;;35.33;20.33;;;;;;;9.80;57.45;101885.94;4986101;28;102211;-48
2022/03/26 00:50:03;;;;;;;34.35;20.85;;;;;;;9.80;58.44;101885.94;4992971;28;101936;-48
2022/03/26 00:52:30;;;;;;;31.77;19.38;;;;;;;9.80;57.96;101885.94;4993892;28;102139;-49
2022/03/26 00:54:57;;;;;;;30.45;19.38;;;;;;;9.80;58.26;101885.94;4993029;28;104225;-49
2022/03/26 00:57:26;;;;;;;31.52;19.45;;;;;;;9.79;58.11;101889.75;4991139;28;101993;-48
2022/03/26 00:59:53;;;;;;;32.63;20.00;;;;;;;9.80;57.87;101887.84;4993145;28;101924;-49
2022/03/26 01:02:19;;;;;;;33.97;20.63;;;;;;;9.79;58.34;101895.19;4994064;28;102096;-48
2022/03/26 01:04:46;;;;;;;32.22;19.58;;;;;;;9.79;58.08;101895.19;4991528;28;103598;-49
2022/03/26 01:07:14;;;;;;;32.30;18.88;;;;;;;9.80;58.30;101894.09;4992117;28;101999;-49
2022/03/26 01:09:41;;;;;;;31.95;19.15;;;;;;;9.79;57.67;101889.75;4992506;28;102258;-49
2022/03/26 01:12:09;;;;;;;33.78;19.58;;;;;;;9.80;58.10;101893.28;4992961;28;102442;-49
2022/03/26 01:14:36;;;;;;;24.47;14.73;;;;;;;9.81;58.04;101900.41;4992205;28;103991;-48
2022/03/26 01:17:04;;;;;;;30.73;18.98;;;;;;;9.80;57.58;101891.38;4992204;28;102275;-49
2022/03/26 01:19:31;;;;;;;34.35;20.05;;;;;;;9.79;58.07;101895.19;4978229;28;102565;-48
2022/03/26 01:21:58;;;;;;;31.85;19.05;;;;;;;9.79;58.13;101895.19;4990591;28;102222;-49
2022/03/26 01:24:27;;;;;;;28.90;17.92;;;;;;;9.79;58.42;101895.19;4982241;28;104015;-48
2022/03/26 01:26:54;;;;;;;32.97;19.08;;;;;;;9.79;58.49;101897.91;4975009;28;103017;-48
2022/03/26 01:29:20;;;;;;;31.27;19.58;;;;;;;9.79;58.56;101900.63;4993223;28;102047;-49
2022/03/26 01:31:47;;;;;;;32.88;19.35;;;;;;;9.79;57.99;101900.63;4986170;28;102122;-49
2022/03/26 01:34:14;;;;;;;31.75;19.33;;;;;;;9.79;58.47;101900.63;4978367;28;104002;-49
2022/03/26 01:36:42;;;;;;;29.83;19.20;;;;;;;9.79;58.07;101900.63;4979972;28;102956;-49
2022/03/26 01:39:09;;;;;;;32.40;18.95;;;;;;;9.80;58.20;101901.44;4978815;28;101864;-49
2022/03/26 01:41:37;;;;;;;30.05;19.70;;;;;;;9.79;58.75;101905.22;4980460;28;102414;-48
2022/03/26 01:44:04;;;;;;;32.08;19.90;;;;;;;9.80;58.08;101907.69;4986743;28;103955;-48
2022/03/26 01:46:44;;;;;;;30.55;19.63;;;;;;;9.78;57.86;101909.84;4981546;28;102492;-49
2022/03/26 01:49:11;;;;;;;31.10;18.92;;;;;;;9.79;58.76;101910.66;4987034;28;101934;-48
2022/03/26 01:51:38;;;;;;;33.15;20.17;;;;;;;9.79;58.44;101906.06;4992083;28;102458;-49
2022/03/26 01:54:05;;;;;;;30.75;18.67;;;;;;;9.78;58.03;101909.84;4991490;28;104012;-48
2022/03/26 01:56:32;;;;;;;32.15;20.08;;;;;;;9.78;58.03;101909.84;4991059;28;102164;-48
2022/03/26 01:59:00;;;;;;;28.10;19.17;;;;;;;9.78;57.82;101909.84;4991236;28;102199;-48
2022/03/26 02:01:27;;;;;;;28.73;18.98;;;;;;;9.79;58.26;101916.94;4993049;28;102414;-48
2022/03/26 02:03:56;;;;;;;29.55;19.15;;;;;;;9.80;58.72;101917.75;4981560;28;103960;-48
2022/03/26 02:06:24;;;;;;;30.30;19.65;;;;;;;9.78;57.90;101915.28;4979940;28;102482;-49
2022/03/26 02:08:51;;;;;;;30.05;19.83;;;;;;;9.78;58.01;101926.16;4981474;28;101960;-48
2022/03/26 02:11:18;;;;;;;31.35;19.75;;;;;;;9.79;57.89;101927.81;4993106;28;102792;-49
2022/03/26 02:13:49;;;;;;;28.52;17.88;;;;;;;9.79;58.06;101916.09;4991282;28;104153;-48
2022/03/26 02:16:17;;;;;;;30.83;18.58;;;;;;;9.79;58.51;101916.09;4991692;28;102043;-48
2022/03/26 02:18:44;;;;;;;36.75;20.60;;;;;;;9.78;58.30;101918.00;4991553;28;102495;-49
2022/03/26 02:21:13;;;;;;;30.98;19.52;;;;;;;9.79;57.90;101921.53;4992621;28;101882;-48
2022/03/26 02:23:40;;;;;;;29.83;19.15;;;;;;;9.78;57.92;101919.91;4990301;28;103883;-49
2022/03/26 02:26:08;;;;;;;29.23;20.45;;;;;;;9.79;58.61;101922.38;4987606;28;102565;-49
2022/03/26 02:28:36;;;;;;;29.48;19.20;;;;;;;9.78;58.26;101920.72;4971473;28;101939;-49
2022/03/26 02:31:02;;;;;;;27.40;18.48;;;;;;;9.78;58.75;101923.44;4972773;28;102075;-49
2022/03/26 02:33:29;;;;;;;29.85;18.33;;;;;;;9.78;58.07;101919.91;4971284;28;103905;-48
2022/03/26 02:35:57;;;;;;;27.10;18.67;;;;;;;9.77;58.30;101921.78;4976423;28;102343;-49
2022/03/26 02:38:24;;;;;;;29.40;19.33;;;;;;;9.78;58.26;101918.00;4982805;28;102540;-49
2022/03/26 02:41:01;;;;;;;31.48;19.38;;;;;;;9.78;58.58;101926.16;4992847;28;101979;-49
2022/03/26 02:43:27;;;;;;;29.83;18.65;;;;;;;9.78;58.80;101926.16;4991306;28;104072;-49
2022/03/26 02:45:54;;;;;;;27.27;17.85;;;;;;;9.78;58.83;101926.16;4991062;28;102593;-49
2022/03/26 02:48:25;;;;;;;27.95;18.70;;;;;;;9.78;58.34;101928.88;4991398;28;102494;-49
2022/03/26 02:50:52;;;;;;;28.48;18.60;;;;;;;9.78;58.07;101931.59;4991929;28;102277;-49
2022/03/26 02:53:19;;;;;;;29.02;18.50;;;;;;;9.77;58.23;101927.22;4989953;28;104207;-49
2022/03/26 02:55:47;;;;;;;27.33;18.70;;;;;;;9.77;58.53;101924.50;4990984;28;102358;-48
2022/03/26 02:58:14;;;;;;;26.02;18.65;;;;;;;9.78;58.40;101925.31;4990879;28;101917;-49
2022/03/26 03:00:41;;;;;;;28.30;18.40;;;;;;;9.77;58.16;101919.06;4990326;28;102540;-49
2022/03/26 03:03:10;;;;;;;26.75;17.88;;;;;;;9.77;58.38;101927.22;4990522;28;104005;-49
2022/03/26 03:05:37;;;;;;;26.52;18.88;;;;;;;9.78;58.63;101925.31;4989863;28;103651;-49
2022/03/26 03:08:04;;;;;;;27.27;18.15;;;;;;;9.77;58.66;101923.66;4981726;28;102244;-49
2022/03/26 03:10:32;;;;;;;27.55;18.60;;;;;;;9.77;58.73;101920.94;4972522;28;102343;-49
2022/03/26 03:13:09;;;;;;;31.33;18.35;;;;;;;9.77;57.93;101919.06;4970664;28;103125;-49
2022/03/26 03:15:37;;;;;;;26.30;17.77;;;;;;;9.77;58.36;101923.66;4970753;28;102109;-49
2022/03/26 03:18:04;;;;;;;24.67;17.48;;;;;;;9.76;58.76;101922.81;4971132;28;102339;-49
2022/03/26 03:20:32;;;;;;;24.48;16.63;;;;;;;9.77;58.48;101923.66;4972676;28;102312;-49
2022/03/26 03:23:02;;;;;;;23.83;16.98;;;;;;;9.77;58.51;101924.50;4970907;28;104118;-49
2022/03/26 03:25:30;;;;;;;27.50;18.00;;;;;;;9.75;58.01;101926.63;4971483;28;102528;-48
2022/03/26 03:27:57;;;;;;;27.00;18.15;;;;;;;9.77;58.06;101935.38;4983395;28;103785;-49
2022/03/26 03:30:26;;;;;;;25.83;17.70;;;;;;;9.76;58.74;101933.69;4972521;28;101999;-49
2022/03/26 03:32:53;;;;;;;27.45;18.33;;;;;;;9.76;58.19;101927.44;4982210;28;104064;-49
2022/03/26 03:35:21;;;;;;;25.17;17.08;;;;;;;9.76;58.30;101928.28;4991266;28;101837;-49
2022/03/26 03:37:48;;;;;;;26.17;17.25;;;;;;;9.77;58.76;101940.81;4981251;28;102313;-48
2022/03/26 03:40:15;;;;;;;23.67;16.85;;;;;;;9.76;58.38;101933.69;4975296;28;102702;-49
2022/03/26 03:42:41;;;;;;;25.08;18.42;;;;;;;9.76;59.07;101928.28;4988256;28;103953;-49
2022/03/26 03:45:09;;;;;;;25.60;17.63;;;;;;;9.75;58.17;101926.63;4984426;28;102078;-49
2022/03/26 03:47:37;;;;;;;25.08;17.50;;;;;;;9.76;58.57;101939.13;4976543;28;103541;-48
2022/03/26 03:50:05;;;;;;;24.47;17.53;;;;;;;9.76;58.49;101938.31;4984704;28;102221;-49
2022/03/26 03:52:33;;;;;;;24.65;17.83;;;;;;;9.76;58.78;101944.56;4988039;28;104241;-48
2022/03/26 03:54:59;;;;;;;24.45;16.88;;;;;;;9.76;58.51;101933.69;4991417;28;102568;-48
2022/03/26 03:57:25;;;;;;;26.08;17.92;;;;;;;9.75;58.95;101939.38;4990063;28;102223;-48
2022/03/26 03:59:52;;;;;;;23.35;16.73;;;;;;;9.75;58.52;101936.69;4974179;28;102050;-48
2022/03/26 04:02:19;;;;;;;24.08;16.42;;;;;;;9.75;58.94;101942.94;4988410;28;103776;-49
2022/03/26 04:04:46;;;;;;;24.02;17.50;;;;;;;9.75;58.76;101942.94;4980446;28;102081;-49
2022/03/26 04:07:13;;;;;;;23.58;16.77;;;;;;;9.75;58.41;101940.22;4982217;28;102023;-48
2022/03/26 04:09:42;;;;;;;23.73;16.35;;;;;;;9.75;58.84;101934.78;4974431;28;102040;-48
2022/03/26 04:12:09;;;;;;;24.15;16.95;;;;;;;9.75;58.33;101937.50;4983135;28;104086;-48
2022/03/26 04:14:43;;;;;;;23.42;17.40;;;;;;;9.76;58.16;101935.59;4990839;28;102242;-49
2022/03/26 04:17:11;;;;;;;23.70;17.52;;;;;;;9.75;58.98;101937.50;4984958;28;102401;-49
2022/03/26 04:19:37;;;;;;;22.00;15.88;;;;;;;9.75;58.70;101945.66;4975285;28;102451;-49
2022/03/26 04:22:06;;;;;;;25.50;17.50;;;;;;;9.75;58.62;101942.09;4973554;28;103888;-48
2022/03/26 04:24:35;;;;;;;24.60;17.65;;;;;;;9.76;58.83;101941.03;4974489;28;102021;-48
2022/03/26 04:27:03;;;;;;;22.73;16.40;;;;;;;9.75;58.43;101942.94;4983987;28;102070;-49
2022/03/26 04:29:30;;;;;;;24.85;16.98;;;;;;;9.76;58.42;101943.75;4975456;28;101971;-49
2022/03/26 04:31:59;;;;;;;21.83;16.67;;;;;;;9.74;58.02;101930.41;4974110;28;103770;-48
2022/03/26 04:34:27;;;;;;;23.58;17.00;;;;;;;9.75;58.76;101940.22;4974901;28;102171;-48
2022/03/26 04:36:54;;;;;;;;;;;;;;;9.76;59.04;101943.75;4985191;28;102669;-48
2022/03/26 04:39:22;;;;;;;24.88;17.48;;;;;;;9.75;58.88;101942.94;4994290;28;102627;-48
2022/03/26 04:41:49;;;;;;;23.48;16.50;;;;;;;9.76;58.38;101954.63;4992480;28;104046;-49
2022/03/26 04:44:16;;;;;;;24.85;17.63;;;;;;;9.76;58.89;101954.63;4993942;28;102411;-49
2022/03/26 04:46:43;;;;;;;23.08;17.08;;;;;;;9.77;58.63;101961.72;4992385;28;102295;-48
2022/03/26 04:49:09;;;;;;;23.45;17.10;;;;;;;9.77;58.46;101959.00;4994598;28;102406;-49
2022/03/26 04:51:37;;;;;;;24.75;17.63;;;;;;;9.78;58.23;101957.97;4992719;28;103981;-49
2022/03/26 04:54:04;;;;;;;23.10;17.27;;;;;;;9.78;58.45;101949.81;4993820;28;102316;-48
2022/03/26 04:56:36;;;;;;;23.38;16.77;;;;;;;9.77;58.06;101957.13;4991817;28;102255;-50
2022/03/26 04:59:04;;;;;;;26.52;17.13;;;;;;;9.79;58.71;101959.59;4994463;28;102767;-48
2022/03/26 05:01:32;;;;;;;21.83;17.08;;;;;;;9.78;58.77;101953.34;4991670;28;103760;-48
2022/03/26 05:04:01;;;;;;;24.60;17.63;;;;;;;9.79;58.08;101949.56;4992595;28;101844;-49
2022/03/26 05:06:28;;;;;;;25.63;17.02;;;;;;;9.80;58.34;101951.19;4992649;28;102443;-48
2022/03/26 05:08:55;;;;;;;22.40;16.90;;;;;;;9.79;57.94;101944.13;4992641;28;102215;-48
2022/03/26 05:11:22;;;;;;;22.40;16.75;;;;;;;9.81;58.15;101950.16;4993361;28;103944;-48
2022/03/26 05:13:50;;;;;;;21.77;16.77;;;;;;;9.82;58.72;101954.53;4992920;28;102425;-49
2022/03/26 05:16:16;;;;;;;20.80;16.95;;;;;;;9.83;57.99;101956.16;4994032;28;102507;-48
2022/03/26 05:18:43;;;;;;;24.00;17.33;;;;;;;9.85;57.99;101955.94;4992584;28;102292;-49
2022/03/26 05:21:09;;;;;;;22.75;16.77;;;;;;;9.85;58.52;101964.94;4977333;28;104102;-49
2022/03/26 05:23:36;;;;;;;25.30;17.58;;;;;;;9.86;58.60;101966.56;4973406;28;102528;-48
2022/03/26 05:26:03;;;;;;;23.50;16.88;;;;;;;9.89;58.38;101975.34;4973386;28;102007;-49
2022/03/26 05:28:30;;;;;;;24.20;16.67;;;;;;;9.89;58.23;101975.34;4979189;28;102730;-48
2022/03/26 05:31:00;;;;;;;20.90;15.52;;;;;;;9.90;58.32;101976.97;4992459;28;102049;-48
2022/03/26 05:33:29;;;;;;;22.58;16.38;;;;;;;9.91;58.00;101967.75;4983709;28;102332;-48
2022/03/26 05:35:56;;;;;;;22.17;16.00;;;;;;;9.91;58.42;101963.13;4990042;28;102338;-48
2022/03/26 05:38:23;;;;;;;22.55;16.65;;;;;;;9.93;58.42;101976.50;4977392;28;102792;-49
2022/03/26 05:40:50;;;;;;;24.05;17.27;;;;;;;9.92;58.28;101975.69;4979481;28;103937;-49
2022/03/26 05:43:16;;;;;;;22.02;16.58;;;;;;;9.94;58.53;101978.16;4987989;28;102110;-49
2022/03/26 05:45:45;;;;;;;24.10;16.52;;;;;;;9.94;58.49;101968.09;4989156;28;102237;-49
2022/03/26 05:48:13;;;;;;;20.63;16.65;;;;;;;9.96;57.70;101976.06;4989205;28;102360;-49
2022/03/26 05:50:40;;;;;;;20.17;16.42;;;;;;;9.95;58.18;101979.81;4984011;28;104199;-49
2022/03/26 05:53:06;;;;;;;21.95;16.75;;;;;;;9.95;58.23;101967.03;4972899;28;102332;-49
2022/03/26 05:55:33;;;;;;;21.20;15.70;;;;;;;9.96;58.42;101976.06;4987688;28;102425;-48
2022/03/26 05:58:00;;;;;;;22.58;16.95;;;;;;;9.97;58.49;101973.06;4993475;28;102440;-49
2022/03/26 06:00:27;;;;;;;21.67;16.48;;;;;;;9.97;58.56;101973.06;4991915;28;104076;-49
2022/03/26 06:02:53;;;;;;;23.50;17.40;;;;;;;9.97;58.14;101967.63;4991721;28;102734;-49
2022/03/26 06:05:24;;;;;;;23.77;16.60;;;;;;;9.98;58.26;101969.28;4991413;28;102332;-49
2022/03/26 06:07:51;;;;;;;23.42;16.70;;;;;;;9.98;57.96;101979.34;4993375;28;102259;-49
2022/03/26 06:10:17;;;;;;;22.13;16.30;;;;;;;9.97;58.19;101972.25;4974909;28;104308;-49
2022/03/26 06:12:46;;;;;;;22.20;16.58;;;;;;;9.97;57.99;101969.53;4972509;28;102299;-49
2022/03/26 06:15:13;;;;;;;21.55;16.73;;;;;;;9.97;58.36;101967.63;4972748;28;101864;-48
2022/03/26 06:17:40;;;;;;;21.40;17.35;;;;;;;9.98;58.47;101973.91;4987292;28;102206;-49
2022/03/26 06:20:10;;;;;;;20.95;15.80;;;;;;;9.98;58.21;101961.13;4989149;28;103683;-48
2022/03/26 06:22:40;;;;;;;21.40;15.85;;;;;;;9.99;58.53;101960.09;4984802;28;103350;-48
2022/03/26 06:25:08;;;;;;;21.52;15.63;;;;;;;9.99;58.74;101964.66;4991684;28;102508;-49
2022/03/26 06:27:35;;;;;;;23.48;16.52;;;;;;;10.00;58.04;101966.34;4989718;28;102226;-48
2022/03/26 06:30:03;;;;;;;21.45;16.05;;;;;;;10.00;58.48;101978.06;4991738;28;104064;-49
2022/03/26 06:32:30;;;;;;;21.05;16.38;;;;;;;10.01;58.29;101973.44;4990030;28;102484;-49
2022/03/26 06:34:57;;;;;;;21.58;15.68;;;;;;;10.01;58.09;101976.16;4988310;28;102568;-49
2022/03/26 06:37:24;;;;;;;21.42;16.08;;;;;;;10.01;57.88;101968.00;4990421;28;102277;-51
2022/03/26 06:39:53;;;;;;;20.80;16.50;;;;;;;10.02;58.19;101972.34;4989825;28;103968;-49
2022/03/26 06:42:21;;;;;;;20.38;16.38;;;;;;;10.02;58.86;101972.34;4991691;28;101972;-49
2022/03/26 06:44:49;;;;;;;21.77;16.20;;;;;;;10.03;58.08;101965.88;4991687;28;101840;-48
2022/03/26 06:47:18;;;;;;;22.80;16.38;;;;;;;10.03;58.76;101971.31;4989013;28;102397;-48
2022/03/26 06:49:51;;;;;;;21.25;15.55;;;;;;;10.03;57.86;101963.97;4983998;28;103980;-49
2022/03/26 06:52:19;;;;;;;22.38;16.17;;;;;;;10.03;58.61;101961.25;4992211;28;102459;-49
2022/03/26 06:54:51;;;;;;;21.77;16.00;;;;;;;10.04;58.57;101962.91;4991480;28;102352;-49
2022/03/26 06:57:19;;;;;;;19.80;15.55;;;;;;;10.05;58.13;101958.28;4991969;28;102304;-49
2022/03/26 06:59:50;;;;;;;20.42;15.38;;;;;;;10.07;58.59;101956.19;4991245;28;103972;-48
2022/03/26 07:02:17;;;;;;;21.33;15.80;;;;;;;10.08;58.08;101965.97;4991614;28;102058;-49
2022/03/26 07:04:44;;;;;;;18.15;14.77;;;;;;;10.09;58.28;101967.63;4991339;28;102328;-48
2022/03/26 07:07:12;;;;;;;20.50;15.18;;;;;;;10.08;58.49;101957.81;4992774;28;102473;-48
2022/03/26 07:09:39;;;;;;;19.77;14.57;;;;;;;10.09;58.25;101954.03;4991319;28;103836;-48
2022/03/26 07:12:07;;;;;;;19.38;14.50;;;;;;;10.10;58.87;101961.16;4992121;28;102361;-48
2022/03/26 07:14:35;;;;;;;19.85;14.48;;;;;;;10.12;58.81;101964.44;4990807;28;102078;-48
2022/03/26 07:17:05;;;;;;;21.38;15.65;;;;;;;10.12;58.71;101964.44;4991967;28;102087;-49
2022/03/26 07:19:34;;;;;;;17.45;14.57;;;;;;;10.13;58.47;101966.09;4990722;28;104109;-48
2022/03/26 07:22:02;;;;;;;18.13;14.82;;;;;;;10.13;58.71;101960.66;4990213;28;101907;-49
2022/03/26 07:24:31;;;;;;;20.02;14.30;;;;;;;10.14;58.43;101967.75;4989364;28;102310;-49
2022/03/26 07:26:59;;;;;;;18.58;15.30;;;;;;;10.16;58.81;101960.16;4985889;28;102217;-49
2022/03/26 07:29:25;;;;;;;18.20;14.35;;;;;;;10.17;58.36;101964.56;4984366;28;103897;-49
2022/03/26 07:31:55;;;;;;;18.48;14.75;;;;;;;10.18;57.99;101958.06;4991584;28;102610;-49
2022/03/26 07:34:22;;;;;;;19.63;14.73;;;;;;;10.19;58.32;101965.13;4981012;28;102059;-48
2022/03/26 07:36:49;;;;;;;18.55;14.43;;;;;;;10.20;58.81;101955.91;4989119;28;102595;-49
2022/03/26 07:39:16;;;;;;;17.80;13.55;;;;;;;10.21;58.38;101957.59;4986160;28;103948;-48
2022/03/26 07:41:45;;;;;;;18.50;14.07;;;;;;;10.22;58.47;101961.94;4984953;28;101966;-50
2022/03/26 07:44:11;;;;;;;17.33;13.70;;;;;;;10.24;58.33;101962.56;4983255;28;103530;-48
2022/03/26 07:46:38;;;;;;;16.70;13.70;;;;;;;10.24;58.44;101968.00;4986316;28;102851;-49
2022/03/26 07:49:06;;;;;;;17.35;13.73;;;;;;;10.26;58.05;101965.88;4987040;28;103892;-49
2022/03/26 07:51:35;;;;;;;20.10;14.38;;;;;;;10.26;58.78;101963.16;4983896;28;101959;-48
2022/03/26 07:54:02;;;;;;;19.25;14.18;;;;;;;10.28;58.58;101968.38;4994185;28;101906;-48
2022/03/26 07:56:29;;;;;;;17.77;13.57;;;;;;;10.28;58.50;101962.94;4995368;28;102474;-49
2022/03/26 07:58:57;;;;;;;17.13;13.85;;;;;;;10.28;58.31;101966.47;4993375;28;104303;-48
2022/03/26 08:01:24;;;;;;;17.93;13.50;;;;;;;10.29;58.31;101959.97;4993968;28;102331;-50
2022/03/26 08:03:54;;;;;;;16.40;13.65;;;;;;;10.31;58.89;101963.28;4993633;28;102253;-48
2022/03/26 08:06:24;;;;;;;17.52;13.40;;;;;;;10.31;58.96;101959.72;4987127;28;102434;-48
2022/03/26 08:08:50;;;;;;;16.85;13.13;;;;;;;10.32;58.16;101959.50;4988616;28;104069;-49
2022/03/26 08:11:17;;;;;;;15.68;13.32;;;;;;;10.32;58.29;101956.75;4994462;28;102567;-48
2022/03/26 08:13:44;;;;;;;17.48;14.00;;;;;;;10.34;58.72;101959.22;4993644;28;102503;-49
2022/03/26 08:16:10;;;;;;;15.85;13.40;;;;;;;10.36;58.59;101962.56;4995428;28;102464;-49
2022/03/26 08:18:39;;;;;;;17.30;14.15;;;;;;;10.37;58.58;101955.22;4992892;28;103862;-48
2022/03/26 08:21:06;;;;;;;16.60;13.23;;;;;;;10.37;58.71;101960.66;4994669;28;102495;-49
2022/03/26 08:23:38;;;;;;;16.25;13.15;;;;;;;10.38;58.13;101951.41;4993417;28;101972;-49
2022/03/26 08:26:19;;;;;;;16.08;12.88;;;;;;;10.39;59.03;101961.25;4994590;28;102168;-49
2022/03/26 08:28:49;;;;;;;16.73;13.90;;;;;;;10.40;58.29;101965.63;4983986;28;103906;-48
2022/03/26 08:31:21;;;;;;;16.15;13.38;;;;;;;10.41;58.63;101953.66;4974248;28;102679;-49
2022/03/26 08:33:49;;;;;;;18.92;13.95;;;;;;;10.41;58.16;101957.22;4973438;28;102310;-49
2022/03/26 08:36:17;;;;;;;15.73;13.20;;;;;;;10.41;58.71;101957.22;4975071;28;102425;-49
2022/03/26 08:38:46;;;;;;;16.00;12.70;;;;;;;10.43;58.41;101948.81;4973152;28;103889;-49
2022/03/26 08:41:13;;;;;;;16.85;13.43;;;;;;;10.44;58.01;101939.59;4991344;28;102272;-49
2022/03/26 08:43:40;;;;;;;15.25;12.85;;;;;;;10.44;58.44;101939.59;4992806;28;101935;-49
2022/03/26 08:46:07;;;;;;;16.42;12.55;;;;;;;10.45;58.73;101949.41;4994995;28;102436;-49
2022/03/26 08:48:34;;;;;;;16.50;13.00;;;;;;;10.46;58.48;101951.91;4989820;28;103929;-49
2022/03/26 08:51:01;;;;;;;14.68;13.02;;;;;;;10.46;58.70;101942.91;4988816;28;102119;-49
2022/03/26 08:53:27;;;;;;;17.27;13.60;;;;;;;10.47;58.30;101931.75;4987010;28;102562;-49
2022/03/26 08:55:58;;;;;;;18.63;13.68;;;;;;;10.47;58.56;101922.78;4993765;28;102575;-48
2022/03/26 08:58:25;;;;;;;17.60;12.93;;;;;;;10.47;58.26;101922.78;4986445;28;104112;-49
2022/03/26 09:00:53;;;;;;;14.82;12.85;;;;;;;10.47;58.25;101918.16;4985118;28;102094;-49
2022/03/26 09:03:21;;;;;;;13.77;12.00;;;;;;;10.49;58.33;101907.00;4983412;28;102585;-48
2022/03/26 09:05:49;;;;;;;14.88;12.35;;;;;;;10.50;58.35;101903.25;4989259;28;102220;-49
2022/03/26 09:08:20;;;;;;;16.55;12.50;;;;;;;10.50;58.24;101895.09;4985431;28;103923;-48
2022/03/26 09:10:50;;;;;;;14.80;12.50;;;;;;;10.50;58.00;101895.09;4989963;28;102301;-48
2022/03/26 09:13:20;;;;;;;15.65;12.30;;;;;;;10.51;58.90;101889.38;4989152;28;102520;-49
2022/03/26 09:15:47;;;;;;;16.07;13.43;;;;;;;10.50;58.28;101887.75;4989966;28;102465;-48
2022/03/26 09:18:14;;;;;;;14.63;11.98;;;;;;;10.53;58.18;101872.78;4983402;28;103930;-48
2022/03/26 09:20:42;;;;;;;16.33;12.52;;;;;;;10.51;58.25;101870.34;4994322;28;101792;-48
2022/03/26 09:23:09;;;;;;;15.65;12.15;;;;;;;10.51;58.04;101864.88;4983456;28;102045;-48
2022/03/26 09:25:40;;;;;;;15.50;12.52;;;;;;;10.52;58.50;101865.72;4993870;28;102128;-49
2022/03/26 09:28:06;;;;;;;17.88;12.80;;;;;;;10.52;57.84;101865.72;4983130;28;102985;-49
2022/03/26 09:30:36;;;;;;;17.20;12.38;;;;;;;10.52;58.51;101860.25;4994038;28;101988;-48
2022/03/26 09:33:06;;;;;;;15.48;12.52;;;;;;;10.52;58.25;101866.53;4994580;28;101926;-49
2022/03/26 09:35:33;;;;;;;40.58;14.07;;;;;;;10.53;58.57;101861.91;4995545;28;102888;-48
2022/03/26 09:38:02;;;;;;;19.58;11.70;;;;;;;10.52;58.33;101854.81;4989457;28;104076;-49
2022/03/26 09:40:28;;;;;;;46.95;15.55;;;;;;;10.54;58.60;101853.50;4993416;28;101964;-48
2022/03/26 09:43:01;;;;;;;97.07;17.88;;;;;;;10.54;58.17;101852.69;4977979;28;102027;-49
2022/03/26 09:45:28;;;;;;;35.63;13.48;;;;;;;10.55;58.49;101857.06;4992213;28;102521;-48
2022/03/26 09:47:58;;;;;;;34.00;13.05;;;;;;;10.54;58.61;101836.38;4974058;28;103909;-49
2022/03/26 09:50:25;;;;;;;16.08;12.73;;;;;;;10.55;58.67;101843.44;4982157;28;102252;-49
2022/03/26 09:52:58;;;;;;;23.38;12.57;;;;;;;10.54;58.18;101841.81;4992027;28;102288;-49
2022/03/26 09:55:25;;;;;;;51.17;14.93;;;;;;;10.54;58.28;101847.25;4993469;28;102423;-49
2022/03/26 09:57:52;;;;;;;16.85;11.55;;;;;;;10.54;57.86;101836.38;4988067;28;103984;-48
2022/03/26 10:00:18;;;;;;;14.45;11.82;;;;;;;10.54;58.24;101833.63;4992137;28;101993;-49
2022/03/26 10:02:45;;;;;;;16.52;12.20;;;;;;;10.55;58.46;101838.00;4992062;28;102343;-48
2022/03/26 10:05:17;;;;;;;15.85;12.23;;;;;;;10.54;58.17;101841.81;4993269;28;101924;-50
2022/03/26 10:07:46;;;;;;;14.00;11.40;;;;;;;10.55;58.78;101838.00;4990277;28;104112;-48
2022/03/26 10:10:23;;;;;;;16.98;11.82;;;;;;;10.54;58.06;101830.91;4992578;28;102489;-49
2022/03/26 10:12:53;;;;;;;15.55;11.15;;;;;;;10.54;58.75;101825.47;4992113;28;102496;-48
2022/03/26 10:15:20;;;;;;;14.35;11.05;;;;;;;10.53;57.84;101815.63;4992062;28;102780;-49
2022/03/26 10:17:49;;;;;;;13.25;11.35;;;;;;;10.53;58.18;101810.19;4991318;28;103909;-49
2022/03/26 10:20:18;;;;;;;13.52;10.75;;;;;;;10.53;58.09;101807.47;4991575;28;102525;-48
2022/03/26 10:22:48;;;;;;;17.63;11.07;;;;;;;10.52;58.14;101789.50;4990580;28;102467;-48
2022/03/26 10:25:16;;;;;;;16.67;11.73;;;;;;;10.51;58.27;101788.69;4993925;28;102166;-48
2022/03/26 10:27:46;;;;;;;15.13;11.73;;;;;;;10.51;58.17;101777.78;4990879;28;103695;-49
2022/03/26 10:30:14;;;;;;;14.25;11.13;;;;;;;10.52;58.35;101773.16;4992057;28;102037;-48
2022/03/26 10:32:49;;;;;;;13.60;10.75;;;;;;;10.51;57.67;101771.53;4995074;28;102072;-48
2022/03/26 10:35:20;;;;;;;15.25;11.98;;;;;;;10.51;58.18;101763.34;4991049;28;102008;-48
2022/03/26 10:37:55;;;;;;;12.55;11.13;;;;;;;10.51;58.34;101749.75;4987673;28;103930;-48
2022/03/26 10:40:25;;;;;;;12.82;10.82;;;;;;;10.51;58.02;101750.56;4987491;28;102137;-48
2022/03/26 10:42:58;;;;;;;14.23;10.63;;;;;;;10.51;58.38;101744.31;4989494;28;102659;-48
2022/03/26 10:45:25;;;;;;;12.23;10.07;;;;;;;10.49;58.03;101741.81;4996727;28;102169;-49
2022/03/26 10:47:56;;;;;;;12.90;10.75;;;;;;;10.49;57.91;101732.81;4987610;28;103913;-49
2022/03/26 10:50:25;;;;;;;12.75;10.43;;;;;;;10.50;58.53;101737.22;4977203;28;102294;-48
2022/03/26 10:52:56;;;;;;;12.65;10.35;;;;;;;10.49;58.02;101739.09;4985010;28;102323;-49
2022/03/26 10:55:23;;;;;;;13.70;11.00;;;;;;;10.49;57.57;101730.09;4995036;28;102391;-49
2022/03/26 10:57:51;;;;;;;12.55;10.75;;;;;;;10.49;58.53;101711.06;4993669;28;104096;-48
2022/03/26 11:00:18;;;;;;;13.20;9.77;;;;;;;10.48;58.07;101717.56;4990998;28;102467;-49
2022/03/26 11:02:45;;;;;;;11.18;9.38;;;;;;;10.48;57.83;101726.56;4989901;28;102027;-49
2022/03/26 11:05:13;;;;;;;13.98;10.57;;;;;;;10.48;58.22;101709.41;4999375;28;102459;-49
2022/03/26 11:07:41;;;;;;;11.30;9.05;;;;;;;10.47;58.02;101713.22;4985725;28;103934;-49
2022/03/26 11:10:13;;;;;;;13.57;9.82;;;;;;;10.48;57.81;101712.13;4981929;28;102113;-49